Time;durP1;ratioP1;P1;durP2;ratioP2;P2;SDS_P1;SDS_P2;PMS_P1;PMS_P2;Temp;Humidity;BMP_temperature;BMP_pressure;BME280_temperature;BME280_humidity;BME280_pressure;Samples;Min_cycle;Max_cycle;Signal;HPM_P1;HPM_P2
2023/07/10 00:01:04;;;;;;;8.07;4.35;;;23.50;1.00;;;;;;5110146;28;20172;-77
2023/07/10 00:03:30;;;;;;;5.45;3.70;;;23.50;99.90;;;;;;5106190;28;20195;-78
2023/07/10 00:05:56;;;;;;;4.43;3.72;;;23.70;82.80;;;;;;5113746;28;20199;-78
2023/07/10 00:08:22;;;;;;;5.40;3.70;;;23.70;99.90;;;;;;5113755;28;20275;-78
2023/07/10 00:10:49;;;;;;;4.55;3.65;;;23.70;1.00;;;;;;5099135;28;20223;-78
2023/07/10 00:13:14;;;;;;;4.57;4.13;;;23.60;99.90;;;;;;5098250;28;20182;-78
2023/07/10 00:15:41;;;;;;;8.18;4.10;;;23.40;1.00;;;;;;5105928;28;20196;-77
2023/07/10 00:18:15;;;;;;;5.07;3.70;;;23.40;1.00;;;;;;5114747;28;20637;-77
2023/07/10 00:20:41;;;;;;;5.25;3.97;;;23.50;99.90;;;;;;5114307;28;20178;-78
2023/07/10 00:23:06;;;;;;;4.75;4.05;;;23.50;99.90;;;;;;5114785;28;20248;-78
2023/07/10 00:25:32;;;;;;;7.75;4.07;;;23.50;1.00;;;;;;5114647;28;20195;-77
2023/07/10 00:27:58;;;;;;;4.55;3.83;;;23.50;72.10;;;;;;5113449;28;20602;-78
2023/07/10 00:30:25;;;;;;;5.38;4.03;;;23.60;91.80;;;;;;5113048;28;20172;-78
2023/07/10 00:32:53;;;;;;;5.78;3.80;;;23.70;92.00;;;;;;5113247;28;20175;-78
2023/07/10 00:35:20;;;;;;;5.03;4.07;;;23.60;99.90;;;;;;5114935;28;20167;-78
2023/07/10 00:37:49;;;;;;;7.63;4.05;;;23.60;1.00;;;;;;5111491;28;20596;-78
2023/07/10 00:40:22;;;;;;;4.82;4.00;;;23.60;1.00;;;;;;5101049;28;20651;-77
2023/07/10 00:42:55;;;;;;;5.15;3.85;;;23.50;79.30;;;;;;5114434;28;20195;-78
2023/07/10 00:45:21;;;;;;;6.25;3.80;;;23.50;99.90;;;;;;5112867;28;20164;-78
2023/07/10 00:48:12;;;;;;;4.63;3.58;;;23.50;99.90;;;;;;5113177;28;20175;-78
2023/07/10 00:50:46;;;;;;;4.65;4.18;;;23.50;96.00;;;;;;5113756;28;20196;-78
2023/07/10 00:53:22;;;;;;;6.43;4.07;;;23.50;7.80;;;;;;5114368;27;20163;-78
2023/07/10 00:55:49;;;;;;;6.00;3.65;;;23.60;1.00;;;;;;5112975;28;20253;-78
2023/07/10 00:58:47;;;;;;;5.20;3.80;;;23.60;1.00;;;;;;5114077;28;20584;-78
2023/07/10 01:01:21;;;;;;;4.90;4.20;;;23.50;1.00;;;;;;5113551;28;20309;-78
2023/07/10 01:03:50;;;;;;;5.88;4.00;;;23.50;59.80;;;;;;5112702;28;20178;-78
2023/07/10 01:06:29;;;;;;;5.35;3.75;;;23.40;99.90;;;;;;5112549;28;20696;-78
2023/07/10 01:09:02;;;;;;;8.45;4.00;;;23.30;99.90;;;;;;5103332;28;20267;-78
2023/07/10 01:11:28;;;;;;;7.70;4.38;;;23.30;1.00;;;;;;5102876;28;20287;-77
2023/07/10 01:13:56;;;;;;;5.00;4.00;;;23.40;1.00;;;;;;5100434;28;20168;-78
2023/07/10 01:16:23;;;;;;;6.38;4.10;;;23.30;1.00;;;;;;5105503;28;20223;-77
2023/07/10 01:18:49;;;;;;;6.55;4.28;;;23.20;99.90;;;;;;5106213;28;20203;-78
2023/07/10 01:21:27;;;;;;;5.75;3.85;;;23.10;1.00;;;;;;5109342;28;20317;-78
2023/07/10 01:23:53;;;;;;;6.32;4.10;;;23.10;1.00;;;;;;5113513;28;20224;-77
2023/07/10 01:26:20;;;;;;;9.15;4.47;;;23.00;94.80;;;;;;5112244;28;20191;-77
2023/07/10 01:28:46;;;;;;;8.70;4.53;;;23.00;99.90;;;;;;5112076;28;20203;-77
2023/07/10 01:31:16;;;;;;;6.68;4.30;;;22.90;99.90;;;;;;5111679;28;20207;-77
2023/07/10 01:33:46;;;;;;;5.97;4.00;;;22.90;99.90;;;;;;5112444;28;20178;-77
2023/07/10 01:36:15;;;;;;;6.70;3.90;;;22.80;1.00;;;;;;5113753;28;20271;-78
2023/07/10 01:38:48;;;;;;;6.25;4.10;;;22.70;1.00;;;;;;5111959;28;20168;-78
2023/07/10 01:41:28;;;;;;;5.53;4.05;;;22.60;99.90;;;;;;5109449;28;20308;-78
2023/07/10 01:43:54;;;;;;;6.95;4.28;;;22.70;13.90;;;;;;5095812;28;20172;-78
2023/07/10 01:46:27;;;;;;;9.68;4.00;;;22.70;1.00;;;;;;5111173;28;20716;-78
2023/07/10 01:48:59;;;;;;;6.85;4.30;;;22.80;99.90;;;;;;5113049;28;20175;-78
2023/07/10 01:51:25;;;;;;;6.65;4.40;;;22.80;1.00;;;;;;5112412;28;20270;-78
2023/07/10 01:53:51;;;;;;;5.78;4.00;;;22.80;1.00;;;;;;5111767;28;20203;-78
2023/07/10 01:56:19;;;;;;;4.88;4.07;;;22.70;1.00;;;;;;5112969;28;20203;-78
2023/07/10 01:58:45;;;;;;;6.80;4.43;;;22.70;55.10;;;;;;5113058;28;20210;-78
2023/07/10 02:01:11;;;;;;;6.78;4.40;;;22.50;99.90;;;;;;5112430;28;20606;-78
2023/07/10 02:03:36;;;;;;;5.00;4.10;;;22.30;99.90;;;;;;5112825;28;20661;-78
2023/07/10 02:06:03;;;;;;;6.72;4.35;;;22.20;99.90;;;;;;5111626;28;20238;-77
2023/07/10 02:08:29;;;;;;;4.82;4.30;;;22.20;1.00;;;;;;5111575;28;20258;-78
2023/07/10 02:10:55;;;;;;;5.50;4.28;;;22.10;99.90;;;;;;5111316;28;20306;-77
2023/07/10 02:13:20;;;;;;;5.97;4.80;;;22.20;1.00;;;;;;5111580;28;20171;-77
2023/07/10 02:15:46;;;;;;;6.57;4.45;;;22.20;1.00;;;;;;5111362;28;20198;-78
2023/07/10 02:18:12;;;;;;;5.57;4.22;;;22.20;1.00;;;;;;5111402;28;20172;-77
2023/07/10 02:20:39;;;;;;;6.95;4.53;;;22.30;1.00;;;;;;5112029;28;20171;-77
2023/07/10 02:23:04;;;;;;;8.48;4.43;;;22.30;99.90;;;;;;5112665;28;20188;-78
2023/07/10 02:25:30;;;;;;;6.68;4.90;;;22.10;1.00;;;;;;5111448;28;20170;-77
2023/07/10 02:27:56;;;;;;;5.80;4.80;;;22.00;42.30;;;;;;5112485;28;20172;-78
2023/07/10 02:30:22;;;;;;;8.45;4.70;;;22.10;1.00;;;;;;5112302;28;20203;-78
2023/07/10 02:32:48;;;;;;;5.88;4.88;;;22.20;99.90;;;;;;5112622;28;20207;-77
2023/07/10 02:35:14;;;;;;;7.45;4.90;;;22.20;99.90;;;;;;5112571;28;20171;-78
2023/07/10 02:37:39;;;;;;;8.57;4.82;;;22.20;99.90;;;;;;5111133;28;20183;-77
2023/07/10 02:40:06;;;;;;;5.47;4.63;;;22.10;99.90;;;;;;5112121;28;20171;-77
2023/07/10 02:42:31;;;;;;;7.80;4.20;;;22.20;99.90;;;;;;5111147;28;20175;-78
2023/07/10 02:44:57;;;;;;;6.22;4.85;;;22.20;1.00;;;;;;5112376;28;20520;-78
2023/07/10 02:47:23;;;;;;;5.82;4.57;;;22.20;1.00;;;;;;5112446;28;20197;-78
2023/07/10 02:49:49;;;;;;;7.22;4.60;;;22.20;99.90;;;;;;5111756;28;20614;-78
2023/07/10 02:52:14;;;;;;;7.75;4.35;;;22.20;99.90;;;;;;5110938;28;20191;-78
2023/07/10 02:54:40;;;;;;;7.78;4.55;;;22.30;99.90;;;;;;5098045;28;20191;-78
2023/07/10 02:57:05;;;;;;;6.85;4.47;;;22.30;99.90;;;;;;5102352;28;20207;-78
2023/07/10 02:59:31;;;;;;;6.32;4.55;;;22.20;1.00;;;;;;5112006;28;20216;-77
2023/07/10 03:01:57;;;;;;;7.22;4.70;;;22.20;1.00;;;;;;5111887;28;20251;-78
2023/07/10 03:04:23;;;;;;;5.13;4.45;;;22.10;1.00;;;;;;5112343;28;20706;-78
2023/07/10 03:06:49;;;;;;;7.07;4.82;;;22.10;1.00;;;;;;5111996;28;20195;-78
2023/07/10 03:09:17;;;;;;;5.15;4.50;;;22.00;99.90;;;;;;5112454;28;20281;-77
2023/07/10 03:11:43;;;;;;;8.35;4.70;;;22.00;1.00;;;;;;5110414;28;20251;-78
2023/07/10 03:14:09;;;;;;;7.72;4.97;;;22.00;99.90;;;;;;5110889;28;20187;-78
2023/07/10 03:16:35;;;;;;;6.97;4.90;;;22.10;93.70;;;;;;5110741;28;20184;-78
2023/07/10 03:19:00;;;;;;;7.30;4.50;;;22.10;1.00;;;;;;5111980;28;20172;-78
2023/07/10 03:21:26;;;;;;;5.60;4.43;;;21.90;99.90;;;;;;5110189;28;20229;-78
2023/07/10 03:23:52;;;;;;;6.13;4.95;;;21.70;99.90;;;;;;5110907;28;20222;-78
2023/07/10 03:26:18;;;;;;;5.70;4.60;;;21.50;1.00;;;;;;5112140;28;20657;-76
2023/07/10 03:28:43;;;;;;;5.13;4.45;;;21.40;99.90;;;;;;5110850;28;20337;-78
2023/07/10 03:31:09;;;;;;;6.00;4.35;;;21.20;49.20;;;;;;5111466;28;20202;-78
2023/07/10 03:33:35;;;;;;;8.60;5.10;;;21.10;1.00;;;;;;5110651;28;20254;-78
2023/07/10 03:36:06;;;;;;;6.72;4.93;;;21.20;42.60;;;;;;5110504;28;20443;-78
2023/07/10 03:38:32;;;;;;;6.97;4.90;;;21.20;1.00;;;;;;5112213;28;20176;-78
2023/07/10 03:40:58;;;;;;;5.47;4.43;;;21.10;1.00;;;;;;5115172;28;20183;-78
2023/07/10 03:43:27;;;;;;;5.35;4.72;;;21.20;1.00;;;;;;5113989;28;20171;-78
2023/07/10 03:45:56;;;;;;;6.88;4.95;;;21.20;1.00;;;;;;5115496;28;20233;-78
2023/07/10 03:48:22;;;;;;;8.43;5.15;;;21.20;1.00;;;;;;5114344;28;20172;-78
2023/07/10 03:50:47;;;;;;;6.78;4.75;;;21.20;1.00;;;;;;5114776;28;20571;-78
2023/07/10 03:53:13;;;;;;;6.97;5.00;;;21.30;1.00;;;;;;5114014;28;20168;-78
2023/07/10 03:55:50;;;;;;;6.50;4.57;;;21.20;99.90;;;;;;5115076;28;20160;-78
2023/07/10 03:58:24;;;;;;;5.65;4.65;;;21.10;1.00;;;;;;5114059;28;20168;-78
2023/07/10 04:00:51;;;;;;;6.75;5.10;;;21.10;1.00;;;;;;5114710;28;20183;-78
2023/07/10 04:03:19;;;;;;;6.10;4.20;;;20.90;99.90;;;;;;5115140;28;20179;-78
2023/07/10 04:05:49;;;;;;;8.25;4.97;;;20.90;99.90;;;;;;5113834;28;20203;-78
2023/07/10 04:08:15;;;;;;;6.95;4.78;;;20.80;1.00;;;;;;5115376;28;20182;-78
2023/07/10 04:10:47;;;;;;;4.72;4.32;;;20.90;1.00;;;;;;5113161;28;20171;-78
2023/07/10 04:13:12;;;;;;;765.15;179.55;;;20.80;9.00;;;;;;5114891;28;20164;-78
2023/07/10 04:15:38;;;;;;;9.88;5.20;;;21.00;1.00;;;;;;5114822;28;20259;-78
2023/07/10 04:18:03;;;;;;;5.60;4.78;;;21.00;99.90;;;;;;5115124;28;20247;-78
2023/07/10 04:20:29;;;;;;;155.20;51.13;;;21.10;99.90;;;;;;5114453;28;20250;-78
2023/07/10 04:22:54;;;;;;;6.63;4.60;;;21.20;1.00;;;;;;5113582;28;20179;-78
2023/07/10 04:25:20;;;;;;;351.60;46.15;;;21.30;99.90;;;;;;5113466;28;20221;-78
2023/07/10 04:27:45;;;;;;;50.63;12.02;;;21.30;99.90;;;;;;5113375;28;20168;-78
2023/07/10 04:30:12;;;;;;;3.65;2.40;;;21.40;1.00;;;;;;5112842;28;20186;-78
2023/07/10 04:32:37;;;;;;;8.18;4.57;;;21.30;1.00;;;;;;5113624;28;20195;-78
2023/07/10 04:35:03;;;;;;;5.45;3.25;;;21.20;1.00;;;;;;5114599;28;20213;-78
2023/07/10 04:37:29;;;;;;;7.50;4.00;;;21.20;1.00;;;;;;5113130;28;20183;-78
2023/07/10 04:39:54;;;;;;;3.70;3.15;;;21.30;1.00;;;;;;5112852;28;20216;-77
2023/07/10 04:42:20;;;;;;;4.50;3.40;;;21.30;1.00;;;;;;5114586;28;20539;-78
2023/07/10 04:44:46;;;;;;;5.55;3.70;;;21.40;1.00;;;;;;5113776;28;20175;-76
2023/07/10 04:47:11;;;;;;;4.57;3.55;;;21.40;1.00;;;;;;5113683;28;20592;-78
2023/07/10 04:49:37;;;;;;;3.75;3.38;;;21.40;1.00;;;;;;5113182;28;20546;-76
2023/07/10 04:52:03;;;;;;;5.88;3.90;;;21.40;1.00;;;;;;5113965;28;20211;-80
2023/07/10 04:54:28;;;;;;;4.15;3.40;;;21.40;1.00;;;;;;5113433;28;20168;-80
2023/07/10 04:56:54;;;;;;;5.18;3.45;;;21.40;1.00;;;;;;5113150;28;20211;-79
2023/07/10 04:59:19;;;;;;;5.53;3.55;;;21.40;1.00;;;;;;5115045;28;20182;-79
2023/07/10 05:01:45;;;;;;;4.97;3.67;;;21.40;1.00;;;;;;5113024;28;20167;-80
2023/07/10 05:04:10;;;;;;;5.70;3.65;;;21.30;1.00;;;;;;5113574;28;20255;-81
2023/07/10 05:06:37;;;;;;;6.93;3.97;;;21.30;1.00;;;;;;5113016;28;20214;-79
2023/07/10 05:09:03;;;;;;;6.05;3.97;;;21.30;1.00;;;;;;5114338;28;20221;-78
2023/07/10 05:11:30;;;;;;;6.88;3.80;;;21.30;1.00;;;;;;5113313;28;20195;-78
2023/07/10 05:13:57;;;;;;;4.45;3.17;;;21.40;1.00;;;;;;5089191;28;20256;-79
2023/07/10 05:16:23;;;;;;;4.75;3.70;;;21.40;1.00;;;;;;5070189;28;20193;-78
2023/07/10 05:18:49;;;;;;;5.22;4.05;;;21.60;1.00;;;;;;5072388;28;20169;-79
2023/07/10 05:21:15;;;;;;;5.90;4.20;;;21.70;1.00;;;;;;5070685;28;20535;-78
2023/07/10 05:23:41;;;;;;;5.93;3.55;;;21.80;1.00;;;;;;5072761;28;20209;-78
2023/07/10 05:26:10;;;;;;;5.65;3.95;;;21.80;1.00;;;;;;5071510;28;20196;-78
2023/07/10 05:28:36;;;;;;;5.30;3.53;;;21.80;1.00;;;;;;5072737;28;20169;-78
2023/07/10 05:31:04;;;;;;;6.22;4.70;;;21.90;1.00;;;;;;5071009;28;20202;-78
2023/07/10 05:33:30;;;;;;;6.28;4.15;;;22.00;1.00;;;;;;5071541;28;20169;-78
2023/07/10 05:35:58;;;;;;;5.60;4.03;;;22.00;1.00;;;;;;5071415;28;20216;-78
2023/07/10 05:38:26;;;;;;;4.43;3.53;;;21.90;1.00;;;;;;5071374;28;20254;-79
2023/07/10 05:40:52;;;;;;;3.85;2.92;;;21.90;1.00;;;;;;5072262;28;20177;-77
2023/07/10 05:43:18;;;;;;;4.93;3.67;;;22.00;1.00;;;;;;5071469;28;20644;-79
2023/07/10 05:45:44;;;;;;;7.18;4.35;;;22.10;1.00;;;;;;5072983;28;20197;-79
2023/07/10 05:48:10;;;;;;;7.50;5.57;;;22.20;1.00;;;;;;5071483;28;20181;-79
2023/07/10 05:50:35;;;;;;;4.40;3.78;;;22.20;1.00;;;;;;5072163;28;20222;-78
2023/07/10 05:53:01;;;;;;;8.00;5.28;;;22.30;1.00;;;;;;5072835;28;20617;-78
2023/07/10 05:55:27;;;;;;;2.95;2.47;;;22.30;1.00;;;;;;5072523;28;20177;-79
2023/07/10 05:57:53;;;;;;;2.80;2.50;;;22.40;1.00;;;;;;5074183;28;20223;-79
2023/07/10 06:00:19;;;;;;;5.32;2.28;;;22.40;1.00;;;;;;5072206;28;20165;-79
2023/07/10 06:02:45;;;;;;;10.30;5.25;;;22.40;1.00;;;;;;5071158;28;20180;-79
2023/07/10 06:05:10;;;;;;;7.22;5.20;;;22.40;99.90;;;;;;5072721;28;20169;-80
2023/07/10 06:07:36;;;;;;;6.07;4.93;;;22.50;1.00;;;;;;5072870;28;20213;-79
2023/07/10 06:10:01;;;;;;;6.47;5.30;;;22.50;1.00;;;;;;5070316;28;20207;-75
2023/07/10 06:12:27;;;;;;;9.07;5.25;;;22.50;1.00;;;;;;5106552;28;20300;-79
2023/07/10 06:14:52;;;;;;;6.53;4.93;;;22.50;4.10;;;;;;5106927;28;20171;-78
2023/07/10 06:17:18;;;;;;;5.72;4.88;;;22.50;1.00;;;;;;5104233;28;20192;-78
2023/07/10 06:19:43;;;;;;;6.35;4.90;;;22.60;99.90;;;;;;5103696;28;20176;-79
2023/07/10 06:22:12;;;;;;;7.60;5.00;;;22.70;15.80;;;;;;5101907;28;20180;-80
2023/07/10 06:24:38;;;;;;;6.25;5.15;;;22.70;57.20;;;;;;5112827;28;20519;-79
2023/07/10 06:27:05;;;;;;;9.35;4.90;;;22.90;1.00;;;;;;5112970;28;20191;-79
2023/07/10 06:29:32;;;;;;;6.25;5.15;;;22.90;1.00;;;;;;5112719;28;20246;-78
2023/07/10 06:31:58;;;;;;;9.10;5.53;;;23.00;1.00;;;;;;5111495;28;20229;-79
2023/07/10 06:34:23;;;;;;;6.85;5.53;;;23.00;1.00;;;;;;5111471;28;20171;-80
2023/07/10 06:36:49;;;;;;;5.63;5.10;;;23.10;99.90;;;;;;5111596;28;20546;-79
2023/07/10 06:39:15;;;;;;;6.15;5.55;;;23.00;1.00;;;;;;5111516;28;20167;-79
2023/07/10 06:41:40;;;;;;;6.18;5.15;;;23.10;1.00;;;;;;5112337;28;20232;-78
2023/07/10 06:44:06;;;;;;;7.55;5.10;;;23.00;99.90;;;;;;5111424;28;20203;-79
2023/07/10 06:46:31;;;;;;;5.82;4.78;;;23.10;99.90;;;;;;5111249;28;20215;-79
2023/07/10 06:48:57;;;;;;;5.78;4.90;;;23.10;48.70;;;;;;5111406;28;20634;-78
2023/07/10 06:51:22;;;;;;;8.02;5.22;;;23.20;1.00;;;;;;5112104;28;20213;-79
2023/07/10 06:53:48;;;;;;;5.78;4.70;;;23.30;99.90;;;;;;5112337;28;20258;-79
2023/07/10 06:56:14;;;;;;;8.27;5.18;;;23.40;99.90;;;;;;5111403;28;20199;-79
2023/07/10 06:58:40;;;;;;;6.47;5.40;;;23.40;99.90;;;;;;5103113;28;20195;-78
2023/07/10 07:01:05;;;;;;;6.00;5.35;;;23.40;1.00;;;;;;5095775;28;20172;-78
2023/07/10 07:03:32;;;;;;;5.80;5.15;;;23.40;99.90;;;;;;5091237;28;20178;-79
2023/07/10 07:05:58;;;;;;;9.57;5.60;;;23.40;99.90;;;;;;5092144;28;20192;-79
2023/07/10 07:08:24;;;;;;;6.32;5.55;;;23.50;1.00;;;;;;5092030;28;20176;-79
2023/07/10 07:10:52;;;;;;;6.32;5.38;;;23.50;99.90;;;;;;5091890;28;20164;-79
2023/07/10 07:13:18;;;;;;;7.35;5.57;;;23.50;1.00;;;;;;5092362;28;20217;-79
2023/07/10 07:15:48;;;;;;;6.07;5.18;;;23.60;1.00;;;;;;5095823;28;20574;-78
2023/07/10 07:18:13;;;;;;;7.90;5.55;;;23.60;99.90;;;;;;5094621;28;20168;-79
2023/07/10 07:20:39;;;;;;;6.95;5.10;;;23.70;1.00;;;;;;5095342;28;20704;-78
2023/07/10 07:23:04;;;;;;;6.40;5.53;;;23.70;99.90;;;;;;5095786;28;20168;-78
2023/07/10 07:25:30;;;;;;;6.40;5.78;;;23.80;99.90;;;;;;5095076;28;20225;-79
2023/07/10 07:28:03;;;;;;;9.07;6.10;;;23.90;99.90;;;;;;5094464;28;20627;-79
2023/07/10 07:30:29;;;;;;;8.15;5.80;;;23.90;99.90;;;;;;5094247;28;20175;-79
2023/07/10 07:32:56;;;;;;;8.05;6.75;;;24.00;1.00;;;;;;5095468;28;20196;-79
2023/07/10 07:35:21;;;;;;;7.95;7.05;;;24.00;99.90;;;;;;5095720;28;20221;-79
2023/07/10 07:37:47;;;;;;;8.45;6.15;;;24.00;99.90;;;;;;5094181;28;20255;-79
2023/07/10 07:40:12;;;;;;;6.90;6.18;;;24.10;99.90;;;;;;5093874;28;20179;-78
2023/07/10 07:42:38;;;;;;;8.45;6.60;;;24.10;1.00;;;;;;5094577;28;20249;-78
2023/07/10 07:45:04;;;;;;;10.38;7.60;;;24.10;99.90;;;;;;5095625;28;20257;-79
2023/07/10 07:47:30;;;;;;;10.48;7.95;;;24.00;99.90;;;;;;5094055;28;20218;-78
2023/07/10 07:49:56;;;;;;;9.55;8.20;;;23.90;99.90;;;;;;5094938;28;20177;-78
2023/07/10 07:52:21;;;;;;;9.82;8.82;;;24.10;99.90;;;;;;5095159;28;20245;-78
2023/07/10 07:54:48;;;;;;;10.48;9.10;;;24.10;1.00;;;;;;5094231;28;20263;-79
2023/07/10 07:57:14;;;;;;;11.23;8.85;;;24.20;1.00;;;;;;5094158;28;20617;-78
2023/07/10 07:59:39;;;;;;;11.35;9.90;;;24.30;99.90;;;;;;5093143;28;20665;-78
2023/07/10 08:02:05;;;;;;;13.90;9.57;;;24.30;99.90;;;;;;5102507;28;20207;-80
2023/07/10 08:04:31;;;;;;;11.55;9.35;;;24.20;99.90;;;;;;5113824;28;20178;-80
2023/07/10 08:06:57;;;;;;;12.18;10.45;;;24.10;99.90;;;;;;5114221;28;20195;-78
2023/07/10 08:09:22;;;;;;;17.65;10.70;;;24.00;99.90;;;;;;5114356;28;20202;-78
2023/07/10 08:11:48;;;;;;;13.68;11.10;;;23.80;1.00;;;;;;5114766;28;20210;-78
2023/07/10 08:14:13;;;;;;;13.40;11.02;;;23.60;1.00;;;;;;5114259;28;20179;-78
2023/07/10 08:16:39;;;;;;;11.70;10.50;;;23.50;99.90;;;;;;5115301;28;20240;-78
2023/07/10 08:19:04;;;;;;;13.30;10.23;;;23.50;6.70;;;;;;5115260;28;20665;-78
2023/07/10 08:21:30;;;;;;;14.15;10.63;;;23.40;1.00;;;;;;5113562;28;20171;-79
2023/07/10 08:23:55;;;;;;;13.40;10.50;;;23.40;48.70;;;;;;5114455;28;20176;-79
2023/07/10 08:26:21;;;;;;;13.30;10.60;;;23.40;1.00;;;;;;5113771;28;20192;-79
2023/07/10 08:28:46;;;;;;;12.95;11.15;;;23.40;99.90;;;;;;5108840;28;20174;-79
2023/07/10 08:31:12;;;;;;;12.80;11.40;;;23.50;1.00;;;;;;5073409;28;20189;-79
2023/07/10 08:33:38;;;;;;;15.48;11.07;;;23.50;1.00;;;;;;5101205;28;20695;-79
2023/07/10 08:36:06;;;;;;;12.65;11.25;;;23.50;1.00;;;;;;5092230;28;20201;-79
2023/07/10 08:38:33;;;;;;;14.23;11.35;;;23.50;99.90;;;;;;5093206;28;20192;-79
2023/07/10 08:41:04;;;;;;;11.55;10.35;;;23.50;1.00;;;;;;5101525;28;20259;-79
2023/07/10 08:43:40;;;;;;;14.38;11.13;;;23.50;1.00;;;;;;5104772;28;20180;-79
2023/07/10 08:46:16;;;;;;;12.77;11.25;;;23.60;1.00;;;;;;5114605;28;20199;-79
2023/07/10 08:49:16;;;;;;;13.27;11.40;;;23.70;99.90;;;;;;5113534;28;20176;-79
2023/07/10 08:51:47;;;;;;;13.57;11.60;;;23.70;99.90;;;;;;5080743;28;20196;-79
2023/07/10 08:54:18;;;;;;;13.05;11.55;;;23.70;99.90;;;;;;5110358;28;20167;-79
2023/07/10 08:57:15;;;;;;;14.82;11.65;;;23.70;1.00;;;;;;5114337;28;20734;-79
2023/07/10 09:00:18;;;;;;;15.23;11.75;;;23.80;99.90;;;;;;5113977;28;20236;-79
2023/07/10 09:03:03;;;;;;;16.67;12.40;;;23.80;1.00;;;;;;5027363;28;20199;-79
2023/07/10 09:05:31;;;;;;;12.75;11.27;;;23.70;1.00;;;;;;5090336;28;20183;-78
2023/07/10 09:08:10;;;;;;;13.45;11.18;;;23.60;1.00;;;;;;5114277;27;20171;-79
2023/07/10 09:10:36;;;;;;;13.82;11.38;;;23.60;99.90;;;;;;5112497;28;20168;-79
2023/07/10 09:13:03;;;;;;;13.60;12.02;;;23.60;1.00;;;;;;5114291;28;20230;-78
2023/07/10 09:15:44;;;;;;;15.23;11.88;;;23.80;99.90;;;;;;5113933;28;20168;-79
2023/07/10 09:18:10;;;;;;;15.07;11.85;;;24.30;1.00;;;;;;5112774;28;20160;-79
2023/07/10 09:20:36;;;;;;;14.18;11.60;;;24.70;99.90;;;;;;5113482;28;20174;-79
2023/07/10 09:23:12;;;;;;;14.32;11.35;;;25.00;1.00;;;;;;5112815;28;20172;-79
2023/07/10 09:25:37;;;;;;;12.82;10.75;;;25.00;1.00;;;;;;5112092;28;20174;-79
2023/07/10 09:28:03;;;;;;;15.23;10.88;;;24.80;1.00;;;;;;5100385;28;20173;-79
2023/07/10 09:30:57;;;;;;;14.02;10.65;;;24.70;1.00;;;;;;5112438;28;20734;-79
2023/07/10 09:33:42;;;;;;;11.73;9.93;;;24.80;99.90;;;;;;5113839;28;20215;-79
2023/07/10 09:36:18;;;;;;;11.63;9.20;;;25.10;1.00;;;;;;5112136;28;20199;-79
2023/07/10 09:38:51;;;;;;;10.63;9.25;;;25.10;99.90;;;;;;5113718;28;20163;-79
2023/07/10 09:41:26;;;;;;;12.25;9.55;;;25.10;48.60;;;;;;5113840;28;20171;-81
2023/07/10 09:44:03;;;;;;;12.70;9.50;;;25.10;1.00;;;;;;5114148;28;20190;-77
2023/07/10 09:46:31;;;;;;;11.30;9.13;;;25.00;1.00;;;;;;5112891;28;20198;-80
2023/07/10 09:49:18;;;;;;;10.77;9.60;;;25.20;57.00;;;;;;5112693;28;20172;-80
2023/07/10 09:51:56;;;;;;;10.52;8.88;;;25.20;1.00;;;;;;5112217;28;20199;-80
2023/07/10 09:54:22;;;;;;;11.98;9.70;;;25.20;99.90;;;;;;5113955;28;20171;-77
2023/07/10 09:56:50;;;;;;;11.20;9.35;;;25.20;1.00;;;;;;5112160;28;20203;-79
2023/07/10 09:59:20;;;;;;;10.60;9.20;;;25.60;1.00;;;;;;5113424;28;20174;-79
2023/07/10 10:01:51;;;;;;;9.98;8.50;;;26.10;12.10;;;;;;5112850;28;20254;-79
2023/07/10 10:04:28;;;;;;;10.43;8.70;;;26.60;1.00;;;;;;5111888;28;20176;-79
2023/07/10 10:07:02;;;;;;;10.32;8.73;;;26.70;99.90;;;;;;5111758;28;20191;-79
2023/07/10 10:09:29;;;;;;;10.27;9.18;;;26.50;99.90;;;;;;5111913;28;20178;-79
2023/07/10 10:12:11;;;;;;;10.48;8.95;;;26.70;99.90;;;;;;5111265;28;20191;-78
2023/07/10 10:14:53;;;;;;;10.10;9.00;;;26.90;1.00;;;;;;5113260;28;20174;-79
2023/07/10 10:17:23;;;;;;;10.63;9.13;;;26.90;1.00;;;;;;5112950;28;20188;-79
2023/07/10 10:20:12;;;;;;;9.52;8.52;;;27.20;1.00;;;;;;5111274;28;20204;-80
2023/07/10 10:22:37;;;;;;;9.85;8.85;;;27.30;1.00;;;;;;5111672;28;20266;-79
2023/07/10 10:25:12;;;;;;;11.30;8.57;;;27.60;1.00;;;;;;5111719;28;20271;-80
2023/07/10 10:27:42;;;;;;;9.20;8.00;;;27.80;99.90;;;;;;5111821;28;20195;-79
2023/07/10 10:30:23;;;;;;;10.27;8.48;;;28.10;99.90;;;;;;5112226;28;20541;-79
2023/07/10 10:33:00;;;;;;;12.25;9.18;;;27.70;99.90;;;;;;5111526;28;20210;-79
2023/07/10 10:35:48;;;;;;;9.65;8.65;;;27.40;99.90;;;;;;5113083;28;20558;-79
2023/07/10 10:38:35;;;;;;;10.27;9.10;;;27.60;99.90;;;;;;5111640;28;20229;-81
2023/07/10 10:41:37;;;;;;;9.18;7.97;;;27.80;99.90;;;;;;5111023;28;20175;-79
2023/07/10 10:44:27;;;;;;;9.43;8.00;;;28.10;38.00;;;;;;5112952;28;20171;-79
2023/07/10 10:47:10;;;;;;;8.65;7.70;;;28.20;1.00;;;;;;5116929;28;20219;-79
2023/07/10 10:49:43;;;;;;;8.93;7.32;;;27.80;1.00;;;;;;5116275;28;20171;-75
2023/07/10 10:52:19;;;;;;;8.07;7.28;;;27.40;1.00;;;;;;5115389;28;20195;-79
2023/07/10 10:54:47;;;;;;;8.15;6.97;;;27.00;99.90;;;;;;5118278;28;20633;-79
2023/07/10 10:57:26;;;;;;;8.27;7.15;;;27.20;93.90;;;;;;5117891;28;20210;-80
2023/07/10 11:00:34;;;;;;;8.73;7.07;;;27.70;99.90;;;;;;5116345;28;20156;-79
2023/07/10 11:03:19;;;;;;;10.10;7.35;;;27.90;1.00;;;;;;5115477;28;20724;-79
2023/07/10 11:05:49;;;;;;;8.18;7.38;;;27.60;99.90;;;;;;5116692;28;20218;-79
2023/07/10 11:08:21;;;;;;;7.70;6.90;;;27.20;99.90;;;;;;5116766;28;20172;-79
2023/07/10 11:10:49;;;;;;;7.35;6.38;;;27.30;99.90;;;;;;5115059;28;20207;-80
2023/07/10 11:13:31;;;;;;;7.32;6.60;;;27.40;20.30;;;;;;5116503;28;20171;-79
2023/07/10 11:15:57;;;;;;;6.45;5.70;;;27.80;1.00;;;;;;5115134;28;20276;-79
2023/07/10 11:18:23;;;;;;;6.35;5.75;;;27.90;1.00;;;;;;5108880;28;20187;-79
2023/07/10 11:20:49;;;;;;;6.25;5.65;;;27.90;99.90;;;;;;5106284;28;20167;-81
2023/07/10 11:23:41;;;;;;;6.70;6.00;;;28.20;99.90;;;;;;5114969;28;20174;-79
2023/07/10 11:26:14;;;;;;;5.95;5.45;;;28.50;1.00;;;;;;5105668;28;20581;-79
2023/07/10 11:28:51;;;;;;;6.57;5.88;;;28.80;1.00;;;;;;5115329;28;20171;-78
2023/07/10 11:31:21;;;;;;;6.85;6.15;;;28.80;1.00;;;;;;5115514;28;20695;-79
2023/07/10 11:33:57;;;;;;;7.40;6.05;;;28.70;99.90;;;;;;5115075;28;20171;-79
2023/07/10 11:36:26;;;;;;;7.38;6.32;;;28.50;76.80;;;;;;5115875;28;20191;-79
2023/07/10 11:39:11;;;;;;;7.00;5.88;;;28.40;99.90;;;;;;5114958;28;20184;-79
2023/07/10 11:41:42;;;;;;;6.60;5.90;;;28.80;99.90;;;;;;5114087;28;20171;-79
2023/07/10 11:44:14;;;;;;;6.45;5.85;;;29.30;1.00;;;;;;5115977;28;20172;-80
2023/07/10 11:46:59;;;;;;;5.95;5.35;;;29.80;1.00;;;;;;5115847;28;20239;-79
2023/07/10 11:49:35;;;;;;;6.18;5.57;;;30.30;1.00;;;;;;5115775;28;20557;-79
2023/07/10 11:52:15;;;;;;;5.72;5.22;;;30.10;1.00;;;;;;5115502;28;20676;-80
2023/07/10 11:54:42;;;;;;;7.55;5.70;;;29.30;1.00;;;;;;5114663;28;20171;-79
2023/07/10 11:57:18;;;;;;;6.15;5.55;;;28.90;1.00;;;;;;5115477;28;20211;-79
2023/07/10 12:00:23;;;;;;;6.82;5.82;;;28.60;1.00;;;;;;5113138;28;20220;-79
2023/07/10 12:02:57;;;;;;;5.93;5.32;;;28.40;1.00;;;;;;5035848;28;20188;-79
2023/07/10 12:05:31;;;;;;;8.55;5.78;;;28.60;1.00;;;;;;5107454;27;20183;-78
2023/07/10 12:08:01;;;;;;;6.68;5.25;;;28.90;1.00;;;;;;5114193;28;20171;-79
2023/07/10 12:10:29;;;;;;;7.13;5.53;;;29.00;1.00;;;;;;5113203;28;20259;-77
2023/07/10 12:12:56;;;;;;;7.43;5.13;;;29.20;1.00;;;;;;5097164;28;20215;-79
2023/07/10 12:15:22;;;;;;;5.53;4.60;;;29.40;1.00;;;;;;5105570;28;20168;-78
2023/07/10 12:17:50;;;;;;;5.70;5.20;;;29.80;1.00;;;;;;5114096;28;20179;-79
2023/07/10 12:20:34;;;;;;;5.40;4.60;;;29.80;99.90;;;;;;5114658;28;20555;-79
2023/07/10 12:23:14;;;;;;;5.38;4.88;;;29.50;99.90;;;;;;5115079;28;20167;-80
2023/07/10 12:25:50;;;;;;;7.10;4.90;;;29.50;99.90;;;;;;5113831;28;20167;-79
2023/07/10 12:28:17;;;;;;;5.60;4.63;;;29.40;99.90;;;;;;5115070;28;20527;-78
2023/07/10 12:30:50;;;;;;;6.13;4.65;;;29.40;99.90;;;;;;5109530;28;20172;-79
2023/07/10 12:33:39;;;;;;;6.53;5.15;;;29.80;99.90;;;;;;5102783;28;20176;-78
2023/07/10 12:36:21;;;;;;;5.72;4.70;;;29.70;99.90;;;;;;5094461;28;20196;-79
2023/07/10 12:38:48;;;;;;;5.30;4.38;;;29.70;99.90;;;;;;5093177;28;20547;-79
2023/07/10 12:41:13;;;;;;;4.65;4.25;;;29.80;99.90;;;;;;5092636;28;20262;-79
2023/07/10 12:43:46;;;;;;;4.72;4.22;;;29.60;99.90;;;;;;5094331;28;20260;-79
2023/07/10 12:46:21;;;;;;;5.38;4.35;;;29.60;99.90;;;;;;5092975;28;20261;-79
2023/07/10 12:48:49;;;;;;;4.57;4.18;;;29.70;99.90;;;;;;5094393;28;20651;-80
2023/07/10 12:51:26;;;;;;;5.32;4.15;;;29.90;99.90;;;;;;5092255;28;20204;-79
2023/07/10 12:53:52;;;;;;;4.90;4.40;;;30.20;99.90;;;;;;5094198;28;20172;-79
2023/07/10 12:56:18;;;;;;;5.25;4.75;;;30.20;99.90;;;;;;5103455;28;20329;-78
2023/07/10 12:58:46;;;;;;;5.60;4.38;;;30.60;99.90;;;;;;5107798;28;20261;-79
2023/07/10 13:01:22;;;;;;;5.72;5.22;;;30.70;99.90;;;;;;5110955;28;20175;-78